createdAt,value
2018-04-30T00:00:32.308Z,13.10
2018-04-30T00:02:59.383Z,10.17
2018-04-30T00:05:26.409Z,11.43
2018-04-30T00:07:53.407Z,7.83
2018-04-30T00:10:20.424Z,9.90
2018-04-30T00:12:47.440Z,9.07
2018-04-30T00:15:15.193Z,10.50
2018-04-30T00:17:42.208Z,10.00
2018-04-30T00:20:09.204Z,11.53
2018-04-30T00:22:36.278Z,11.73
2018-04-30T00:25:03.273Z,10.60
2018-04-30T00:27:30.500Z,11.43
2018-04-30T00:29:57.504Z,10.87
2018-04-30T00:32:24.541Z,12.40
2018-04-30T00:34:51.543Z,8.00
2018-04-30T00:37:18.521Z,9.37
2018-04-30T00:39:45.556Z,9.47
2018-04-30T00:42:13.368Z,8.67
2018-04-30T00:44:40.371Z,9.23
2018-04-30T00:47:08.133Z,9.43
2018-04-30T00:49:35.867Z,9.37
2018-04-30T00:52:03.132Z,12.20
2018-04-30T00:54:48.393Z,10.23
2018-04-30T00:57:15.394Z,11.70
2018-04-30T00:59:42.389Z,10.30
2018-04-30T01:02:09.419Z,11.67
2018-04-30T01:04:36.420Z,8.57
2018-04-30T01:07:03.482Z,14.60
2018-04-30T01:09:30.504Z,9.60
2018-04-30T01:11:57.621Z,11.33
2018-04-30T01:14:24.618Z,12.10
2018-04-30T01:16:51.635Z,15.93
2018-04-30T01:19:19.415Z,9.63
2018-04-30T01:21:46.524Z,10.90
2018-04-30T01:24:13.560Z,15.57
2018-04-30T01:26:40.610Z,10.43
2018-04-30T01:29:07.740Z,10.00
2018-04-30T01:31:34.780Z,10.13
2018-04-30T01:34:01.793Z,11.87
2018-04-30T01:36:28.819Z,11.10
2018-04-30T01:38:55.868Z,13.60
2018-04-30T01:41:22.977Z,10.90
2018-04-30T01:43:49.959Z,10.13
2018-04-30T01:46:16.975Z,9.50
2018-04-30T01:48:44.015Z,10.17
2018-04-30T01:51:11.068Z,10.70
2018-04-30T01:53:38.122Z,11.13
2018-04-30T01:56:05.164Z,14.30
2018-04-30T01:58:32.171Z,13.03
2018-04-30T02:00:59.977Z,11.00
2018-04-30T02:03:26.996Z,14.07
2018-04-30T02:05:54.004Z,10.40
2018-04-30T02:08:21.067Z,9.70
2018-04-30T02:10:48.820Z,13.93
2018-04-30T02:13:16.584Z,12.33
2018-04-30T02:15:43.594Z,13.93
2018-04-30T02:18:10.823Z,14.97
2018-04-30T02:20:37.844Z,13.53
2018-04-30T02:23:05.659Z,11.70
2018-04-30T02:25:32.704Z,10.80
2018-04-30T02:27:59.709Z,11.53
2018-04-30T02:30:26.767Z,11.13
2018-04-30T02:32:53.845Z,16.43
2018-04-30T02:35:20.888Z,10.80
2018-04-30T02:37:47.936Z,10.93
2018-04-30T02:40:14.996Z,10.10
2018-04-30T02:42:42.064Z,11.77
2018-04-30T02:45:09.075Z,16.33
2018-04-30T02:47:36.100Z,12.00
2018-04-30T02:50:03.166Z,11.20
2018-04-30T02:52:30.228Z,10.67
2018-04-30T02:54:57.262Z,11.37
2018-04-30T02:57:24.267Z,17.80
2018-04-30T02:59:52.037Z,10.73
2018-04-30T03:02:19.854Z,10.83
2018-04-30T03:04:46.992Z,10.40
2018-04-30T03:07:14.002Z,14.30
2018-04-30T03:09:41.045Z,11.03
2018-04-30T03:12:08.085Z,11.67
2018-04-30T03:14:35.845Z,11.53
2018-04-30T03:17:03.677Z,12.00
2018-04-30T03:19:30.684Z,12.80
2018-04-30T03:21:57.747Z,12.57
2018-04-30T03:24:24.754Z,10.17
2018-04-30T03:26:52.521Z,10.23
2018-04-30T03:29:19.537Z,11.60
2018-04-30T03:31:46.672Z,11.40
2018-04-30T03:34:13.741Z,11.37
2018-04-30T03:36:40.756Z,8.70
2018-04-30T03:39:07.776Z,13.30
2018-04-30T03:41:34.904Z,10.40
2018-04-30T03:44:01.936Z,11.37
2018-04-30T03:46:28.952Z,12.50
2018-04-30T03:48:55.976Z,15.50
2018-04-30T03:51:23.044Z,15.23
2018-04-30T03:53:50.082Z,12.90
2018-04-30T03:56:17.096Z,13.20
2018-04-30T03:58:44.833Z,13.23
2018-04-30T04:01:30.369Z,15.40
2018-04-30T04:04:15.944Z,11.03
2018-04-30T04:06:51.693Z,11.70
2018-04-30T04:09:18.724Z,11.43
2018-04-30T04:11:45.877Z,14.73
2018-04-30T04:14:13.656Z,11.07
2018-04-30T04:16:40.672Z,12.00
2018-04-30T04:19:08.460Z,18.00
2018-04-30T04:21:35.649Z,11.23
2018-04-30T04:24:02.691Z,14.33
2018-04-30T04:26:29.716Z,12.50
2018-04-30T04:28:56.811Z,12.87
2018-04-30T04:31:23.929Z,11.50
2018-04-30T04:33:50.960Z,13.50
2018-04-30T04:36:18.684Z,14.00
2018-04-30T04:38:45.684Z,12.97
2018-04-30T04:41:12.739Z,12.00
2018-04-30T04:43:39.752Z,13.40
2018-04-30T04:46:06.787Z,15.33
2018-04-30T04:48:34.540Z,13.50
2018-04-30T04:51:02.397Z,18.30
2018-04-30T04:53:29.424Z,15.10
2018-04-30T04:55:56.504Z,12.60
2018-04-30T04:58:23.917Z,17.20
2018-04-30T05:00:50.959Z,14.00
2018-04-30T05:03:18.084Z,13.67
2018-04-30T05:05:45.856Z,12.70
2018-04-30T05:08:12.909Z,16.00
2018-04-30T05:10:39.915Z,13.10
2018-04-30T05:13:07.738Z,12.90
2018-04-30T05:15:34.792Z,13.90
2018-04-30T05:18:02.881Z,12.63
2018-04-30T05:20:30.077Z,30.93
2018-04-30T05:22:57.695Z,45.63
2018-04-30T05:25:25.721Z,45.13
2018-04-30T05:27:54.051Z,28.23
2018-04-30T05:30:21.805Z,25.80
2018-04-30T05:32:49.146Z,20.80
2018-04-30T05:35:17.036Z,20.57
2018-04-30T05:37:44.080Z,16.17
2018-04-30T05:40:11.080Z,14.87
2018-04-30T05:42:38.128Z,15.17
2018-04-30T05:45:05.177Z,11.80
2018-04-30T05:47:32.220Z,12.67
2018-04-30T05:49:59.261Z,12.47
2018-04-30T05:52:26.344Z,12.60
2018-04-30T05:54:53.356Z,10.47
2018-04-30T05:57:20.371Z,13.33
2018-04-30T05:59:48.156Z,15.63
2018-04-30T06:02:15.274Z,13.57
2018-04-30T06:04:42.272Z,9.77
2018-04-30T06:07:09.311Z,11.37
2018-04-30T06:09:37.048Z,11.63
2018-04-30T06:12:04.886Z,12.50
2018-04-30T06:14:31.905Z,13.57
2018-04-30T06:16:59.178Z,13.37
2018-04-30T06:19:26.249Z,14.93
2018-04-30T06:21:54.053Z,12.80
2018-04-30T06:24:21.059Z,13.03
2018-04-30T06:26:48.184Z,11.17
2018-04-30T06:29:15.100Z,15.20
2018-04-30T06:31:43.208Z,12.97
2018-04-30T06:34:10.261Z,11.00
2018-04-30T06:36:38.024Z,10.23
2018-04-30T06:39:05.106Z,16.90
2018-04-30T06:41:33.365Z,14.03
2018-04-30T06:44:00.480Z,13.00
2018-04-30T06:46:27.501Z,9.83
2018-04-30T06:48:54.836Z,10.13
2018-04-30T06:51:21.960Z,11.83
2018-04-30T06:53:49.730Z,17.07
2018-04-30T06:56:17.507Z,12.73
2018-04-30T06:58:44.488Z,11.20
2018-04-30T07:01:11.535Z,12.10
2018-04-30T07:03:39.469Z,15.50
2018-04-30T07:06:07.236Z,10.20
2018-04-30T07:08:35.004Z,10.50
2018-04-30T07:11:02.110Z,10.80
2018-04-30T07:13:29.132Z,12.33
2018-04-30T07:15:56.169Z,12.47
2018-04-30T07:18:23.180Z,12.93
2018-04-30T07:20:51.902Z,12.43
2018-04-30T07:23:19.588Z,11.53
2018-04-30T07:25:46.638Z,12.97
2018-04-30T07:28:13.660Z,12.90
2018-04-30T07:30:40.687Z,12.20
2018-04-30T07:33:08.102Z,27.93
2018-04-30T07:35:35.772Z,11.43
2018-04-30T07:38:03.607Z,11.00
2018-04-30T07:40:30.632Z,11.20
2018-04-30T07:42:57.681Z,11.07
2018-04-30T07:45:24.703Z,13.57
2018-04-30T07:47:52.438Z,13.37
2018-04-30T07:50:19.440Z,12.07
2018-04-30T07:52:46.504Z,9.67
2018-04-30T07:55:13.471Z,8.93
2018-04-30T07:57:40.500Z,10.10
2018-04-30T08:00:07.523Z,10.33
2018-04-30T08:02:34.588Z,8.77
2018-04-30T08:05:01.602Z,10.90
2018-04-30T08:07:28.652Z,7.90
2018-04-30T08:09:55.687Z,8.27
2018-04-30T08:12:22.788Z,8.33
2018-04-30T08:14:49.902Z,9.10
2018-04-30T08:17:16.877Z,10.60
2018-04-30T08:19:43.885Z,7.77
2018-04-30T08:22:10.965Z,9.97
2018-04-30T08:24:37.992Z,12.13
2018-04-30T08:27:05.105Z,10.07
2018-04-30T08:29:32.143Z,7.57
2018-04-30T08:32:00.065Z,10.40
2018-04-30T08:34:27.124Z,10.17
2018-04-30T08:36:54.173Z,11.30
2018-04-30T08:39:21.238Z,10.17
2018-04-30T08:41:48.268Z,13.20
2018-04-30T08:44:16.689Z,12.30
2018-04-30T08:46:43.772Z,8.20
2018-04-30T08:49:10.878Z,11.97
2018-04-30T08:51:37.900Z,7.43
2018-04-30T08:54:05.160Z,9.00
2018-04-30T08:56:32.524Z,9.13
2018-04-30T08:59:00.465Z,8.17
2018-04-30T09:01:27.537Z,7.90
2018-04-30T09:03:54.818Z,6.63
2018-04-30T09:06:21.933Z,13.23
2018-04-30T09:08:48.955Z,8.03
2018-04-30T09:11:16.004Z,7.83
2018-04-30T09:13:43.017Z,7.57
2018-04-30T09:16:10.774Z,9.87
2018-04-30T09:18:38.531Z,7.97
2018-04-30T09:21:05.661Z,6.90
2018-04-30T09:23:32.777Z,9.07
2018-04-30T09:26:01.357Z,12.40
2018-04-30T09:28:29.209Z,8.93
2018-04-30T09:30:58.728Z,7.53
2018-04-30T09:33:30.021Z,7.30
2018-04-30T09:35:58.583Z,7.00
2018-04-30T09:38:28.934Z,8.40
2018-04-30T09:40:55.941Z,6.80
2018-04-30T09:43:23.146Z,7.63
2018-04-30T09:45:50.344Z,11.27
2018-04-30T09:48:19.614Z,7.30
2018-04-30T09:50:50.742Z,11.37
2018-04-30T09:53:18.412Z,7.70
2018-04-30T09:55:46.180Z,6.73
2018-04-30T09:58:14.352Z,7.43
2018-04-30T10:00:41.643Z,8.20
2018-04-30T10:03:08.696Z,9.03
2018-04-30T10:05:35.764Z,7.70
2018-04-30T10:08:03.430Z,9.50
2018-04-30T10:10:31.196Z,7.57
2018-04-30T10:12:59.232Z,7.77
2018-04-30T10:15:26.373Z,10.67
2018-04-30T10:17:54.275Z,7.67
2018-04-30T10:20:37.790Z,8.23
2018-04-30T10:23:05.810Z,7.47
2018-04-30T10:25:37.396Z,6.60
2018-04-30T10:28:05.179Z,9.20
2018-04-30T10:30:32.398Z,6.40
2018-04-30T10:33:03.465Z,7.33
2018-04-30T10:35:31.281Z,9.27
2018-04-30T10:37:58.334Z,8.90
2018-04-30T10:40:26.048Z,8.33
2018-04-30T10:43:58.289Z,8.23
2018-04-30T10:46:27.214Z,8.87
2018-04-30T10:49:00.717Z,8.37
2018-04-30T10:51:28.784Z,6.70
2018-04-30T10:53:55.831Z,8.17
2018-04-30T10:56:22.840Z,7.53
2018-04-30T10:58:50.612Z,7.53
2018-04-30T11:01:17.708Z,7.90
2018-04-30T11:03:44.740Z,11.27
2018-04-30T11:06:11.732Z,10.20
2018-04-30T11:08:38.716Z,14.70
2018-04-30T11:11:05.755Z,10.57
2018-04-30T11:13:32.753Z,11.60
2018-04-30T11:15:59.776Z,7.43
2018-04-30T11:18:26.812Z,8.07
2018-04-30T11:20:53.832Z,10.63
2018-04-30T11:23:20.827Z,6.27
2018-04-30T11:25:47.895Z,8.50
2018-04-30T11:28:14.913Z,8.00
2018-04-30T11:30:41.999Z,9.80
2018-04-30T11:33:09.641Z,5.20
2018-04-30T11:35:38.427Z,5.87
2018-04-30T11:38:06.223Z,6.37
2018-04-30T11:40:35.319Z,7.20
2018-04-30T11:43:02.488Z,9.57
2018-04-30T11:45:29.513Z,8.07
2018-04-30T11:47:56.576Z,6.73
2018-04-30T11:50:23.655Z,6.67
2018-04-30T11:52:50.912Z,6.67
2018-04-30T11:55:19.247Z,6.43
2018-04-30T11:57:46.369Z,9.10
2018-04-30T12:00:15.521Z,9.23
2018-04-30T12:02:46.343Z,9.33
2018-04-30T12:05:13.422Z,9.07
2018-04-30T12:07:41.377Z,5.70
2018-04-30T12:10:09.004Z,9.07
2018-04-30T12:12:43.248Z,6.23
2018-04-30T12:15:11.352Z,8.00
2018-04-30T12:20:51.574Z,8.53
2018-04-30T12:23:21.712Z,7.23
2018-04-30T12:25:49.821Z,6.73
2018-04-30T12:28:19.383Z,5.47
2018-04-30T12:30:47.150Z,12.00
2018-04-30T12:33:17.675Z,7.90
2018-04-30T12:35:46.273Z,5.27
2018-04-30T12:38:14.419Z,4.90
2018-04-30T12:40:42.278Z,8.10
2018-04-30T12:43:09.556Z,5.53
2018-04-30T12:45:37.739Z,7.10
2018-04-30T12:48:05.605Z,6.70
2018-04-30T12:50:34.472Z,7.30
2018-04-30T12:53:02.403Z,6.87
2018-04-30T12:58:03.790Z,4.90
2018-04-30T13:00:31.792Z,6.63
2018-04-30T13:02:58.879Z,7.60
2018-04-30T13:05:26.028Z,8.10
2018-04-30T13:07:53.995Z,5.40
2018-04-30T13:10:22.490Z,6.90
2018-04-30T13:12:51.244Z,3.70
2018-04-30T13:15:19.427Z,5.60
2018-04-30T13:17:52.603Z,5.30
2018-04-30T13:20:20.564Z,4.40
2018-04-30T13:22:47.663Z,4.33
2018-04-30T13:25:17.819Z,9.30
2018-04-30T13:27:45.704Z,9.03
2018-04-30T13:30:12.716Z,5.80
2018-04-30T13:32:40.013Z,7.87
2018-04-30T13:35:07.864Z,6.80
2018-04-30T13:37:35.001Z,8.30
2018-04-30T13:40:02.310Z,7.57
2018-04-30T13:42:30.208Z,7.40
2018-04-30T13:44:58.041Z,5.43
2018-04-30T13:47:25.161Z,4.40
2018-04-30T13:49:52.180Z,5.73
2018-04-30T13:52:19.300Z,9.03
2018-04-30T13:54:46.329Z,6.23
2018-04-30T13:57:14.512Z,6.13
2018-04-30T13:59:41.827Z,4.60
2018-04-30T14:02:09.225Z,6.17
2018-04-30T14:04:36.321Z,5.93
2018-04-30T14:07:04.200Z,4.93
2018-04-30T14:09:31.468Z,7.30
2018-04-30T14:11:59.237Z,10.43
2018-04-30T14:14:26.264Z,7.70
2018-04-30T14:16:53.303Z,4.80
2018-04-30T14:19:20.313Z,7.57
2018-04-30T14:21:47.414Z,4.07
2018-04-30T14:24:14.445Z,3.83
2018-04-30T14:26:41.449Z,8.70
2018-04-30T14:29:09.211Z,4.33
2018-04-30T14:31:36.328Z,5.43
2018-04-30T14:34:03.332Z,4.60
2018-04-30T14:36:31.120Z,8.77
2018-04-30T14:38:58.123Z,4.50
2018-04-30T14:41:25.150Z,5.33
2018-04-30T14:43:52.180Z,6.13
2018-04-30T14:46:19.180Z,5.90
2018-04-30T14:48:46.928Z,6.27
2018-04-30T14:51:14.021Z,4.53
2018-04-30T14:53:41.055Z,4.70
2018-04-30T14:56:08.076Z,11.10
2018-04-30T14:58:35.820Z,7.87
2018-04-30T15:01:02.953Z,4.47
2018-04-30T15:03:29.969Z,6.23
2018-04-30T15:05:56.971Z,3.40
2018-04-30T15:08:23.973Z,8.27
2018-04-30T15:10:50.991Z,4.43
2018-04-30T15:13:18.847Z,5.60
2018-04-30T15:15:45.861Z,8.70
2018-04-30T15:18:12.870Z,5.37
2018-04-30T15:20:39.892Z,6.80
2018-04-30T15:23:07.684Z,4.90
2018-04-30T15:25:34.685Z,5.73
2018-04-30T15:28:01.828Z,6.37
2018-04-30T15:30:28.879Z,4.30
2018-04-30T15:32:56.601Z,5.83
2018-04-30T15:35:23.663Z,5.80
2018-04-30T15:37:50.680Z,5.87
2018-04-30T15:40:17.703Z,4.50
2018-04-30T15:42:45.496Z,8.70
2018-04-30T15:45:13.212Z,5.57
2018-04-30T15:47:40.311Z,3.93
2018-04-30T15:50:07.271Z,6.77
2018-04-30T15:52:34.554Z,4.43
2018-04-30T15:55:01.557Z,5.33
2018-04-30T15:57:28.547Z,4.27
2018-04-30T15:59:55.559Z,4.90
2018-04-30T16:02:22.596Z,4.27
2018-04-30T16:04:49.637Z,4.17
2018-04-30T16:07:16.680Z,4.23
2018-04-30T16:09:43.758Z,4.83
2018-04-30T16:12:10.956Z,5.03
2018-04-30T16:14:38.084Z,5.07
2018-04-30T16:17:05.109Z,5.47
2018-04-30T16:19:32.260Z,5.20
2018-04-30T16:22:00.103Z,4.30
2018-04-30T16:24:27.128Z,4.13
2018-04-30T16:26:54.156Z,5.60
2018-04-30T16:29:21.178Z,3.20
2018-04-30T16:31:48.308Z,6.00
2018-04-30T16:34:15.372Z,4.23
2018-04-30T16:36:42.416Z,2.57
2018-04-30T16:39:09.464Z,7.43
2018-04-30T16:41:37.364Z,3.10
2018-04-30T16:44:04.407Z,4.87
2018-04-30T16:46:31.432Z,3.63
2018-04-30T16:48:58.444Z,4.80
2018-04-30T16:51:25.483Z,5.10
2018-04-30T16:53:52.492Z,6.47
2018-04-30T16:56:20.240Z,4.33
2018-04-30T16:58:47.288Z,5.90
2018-04-30T17:01:14.412Z,3.47
2018-04-30T17:03:41.585Z,2.50
2018-04-30T17:06:08.585Z,2.53
2018-04-30T17:08:35.615Z,3.00
2018-04-30T17:11:02.719Z,2.57
2018-04-30T17:13:30.473Z,6.00
2018-04-30T17:15:57.488Z,4.50
2018-04-30T17:18:24.511Z,3.50
2018-04-30T17:20:51.526Z,3.50
2018-04-30T17:23:18.536Z,6.30
2018-04-30T17:25:45.543Z,3.30
2018-04-30T17:28:12.530Z,4.57
2018-04-30T17:30:39.562Z,2.10
2018-04-30T17:33:06.623Z,2.27
2018-04-30T17:35:33.618Z,4.20
2018-04-30T17:38:00.641Z,2.23
2018-04-30T17:40:27.648Z,9.03
2018-04-30T17:42:54.754Z,2.53
2018-04-30T17:45:21.735Z,2.40
2018-04-30T17:47:48.724Z,3.10
2018-04-30T17:50:15.760Z,4.10
2018-04-30T17:52:42.807Z,4.33
2018-04-30T17:55:09.812Z,3.23
2018-04-30T17:57:37.559Z,3.20
2018-04-30T18:00:04.588Z,6.27
2018-04-30T18:02:31.612Z,4.37
2018-04-30T18:04:58.844Z,3.33
2018-04-30T18:07:25.848Z,4.80
2018-04-30T18:09:52.851Z,3.53
2018-04-30T18:12:19.942Z,4.33
2018-04-30T18:14:46.945Z,4.30
2018-04-30T18:17:13.939Z,4.80
2018-04-30T18:19:40.970Z,5.00
2018-04-30T18:22:08.079Z,7.23
2018-04-30T18:24:35.139Z,4.13
2018-04-30T18:27:02.140Z,4.20
2018-04-30T18:29:29.892Z,3.57
2018-04-30T18:31:57.714Z,2.60
2018-04-30T18:34:24.775Z,8.93
2018-04-30T18:36:51.816Z,4.97
2018-04-30T18:39:18.795Z,7.13
2018-04-30T18:41:45.898Z,4.63
2018-04-30T18:44:12.908Z,2.20
2018-04-30T18:46:40.651Z,3.57
2018-04-30T18:49:07.634Z,4.77
2018-04-30T18:51:34.703Z,4.73
2018-04-30T18:54:01.717Z,2.90
2018-04-30T18:56:29.469Z,4.33
2018-04-30T18:58:56.470Z,4.87
2018-04-30T19:01:23.508Z,3.13
2018-04-30T19:03:50.505Z,5.30
2018-04-30T19:06:17.505Z,2.90
2018-04-30T19:08:44.484Z,3.60
2018-04-30T19:11:11.617Z,3.07
2018-04-30T19:13:38.628Z,4.30
2018-04-30T19:16:06.383Z,3.00
2018-04-30T19:18:34.143Z,4.37
2018-04-30T19:21:01.241Z,5.30
2018-04-30T19:23:28.259Z,2.43
2018-04-30T19:25:56.012Z,2.83
2018-04-30T19:28:23.807Z,3.40
2018-04-30T19:30:50.821Z,1.93
2018-04-30T19:33:18.035Z,3.43
2018-04-30T19:35:45.040Z,3.13
2018-04-30T19:38:12.012Z,3.80
2018-04-30T19:40:39.019Z,5.17
2018-04-30T19:43:06.040Z,8.27
2018-04-30T19:45:33.127Z,9.07
2018-04-30T19:48:00.136Z,4.67
2018-04-30T19:50:27.146Z,5.73
2018-04-30T19:52:54.207Z,3.10
2018-04-30T19:55:21.227Z,7.13
2018-04-30T19:57:48.234Z,3.90
2018-04-30T20:00:15.261Z,2.80
2018-04-30T20:02:42.299Z,3.33
2018-04-30T20:05:09.316Z,2.60
2018-04-30T20:07:36.328Z,5.33
2018-04-30T20:10:03.623Z,10.03
2018-04-30T20:12:30.680Z,4.03
2018-04-30T20:14:57.696Z,4.50
2018-04-30T20:17:25.433Z,5.03
2018-04-30T20:19:52.476Z,5.00
2018-04-30T20:22:19.484Z,4.33
2018-04-30T20:24:46.505Z,3.33
2018-04-30T20:27:13.516Z,3.20
2018-04-30T20:29:41.263Z,4.10
2018-04-30T20:32:08.296Z,4.47
2018-04-30T20:34:35.336Z,5.17
2018-04-30T20:37:02.399Z,4.40
2018-04-30T20:39:29.463Z,3.60
2018-04-30T20:41:56.590Z,4.27
2018-04-30T20:44:23.649Z,4.10
2018-04-30T20:46:50.623Z,3.30
2018-04-30T20:49:17.787Z,2.47
2018-04-30T20:51:44.901Z,3.60
2018-04-30T20:54:11.913Z,3.47
2018-04-30T20:56:38.917Z,2.53
2018-04-30T20:59:06.682Z,2.60
2018-04-30T21:01:33.781Z,4.53
2018-04-30T21:04:00.787Z,4.67
2018-04-30T21:06:28.605Z,3.80
2018-04-30T21:09:11.695Z,4.40
2018-04-30T21:11:38.816Z,4.47
2018-04-30T21:14:05.984Z,3.33
2018-04-30T21:16:33.009Z,3.40
2018-04-30T21:18:59.976Z,5.40
2018-04-30T21:21:27.785Z,10.63
2018-04-30T21:23:54.784Z,5.07
2018-04-30T21:26:22.548Z,1.70
2018-04-30T21:28:50.301Z,6.17
2018-04-30T21:31:17.388Z,5.37
2018-04-30T21:33:45.140Z,3.43
2018-04-30T21:36:12.272Z,3.83
2018-04-30T21:38:39.278Z,3.03
2018-04-30T21:41:06.292Z,5.13
2018-04-30T21:43:34.065Z,4.50
2018-04-30T21:46:01.101Z,3.43
2018-04-30T21:48:28.137Z,4.37
2018-04-30T21:50:55.881Z,2.87
2018-04-30T21:53:23.684Z,2.50
2018-04-30T21:55:50.696Z,4.30
2018-04-30T21:58:18.431Z,2.90
2018-04-30T22:00:45.479Z,2.70
2018-04-30T22:03:12.656Z,3.13
2018-04-30T22:05:40.465Z,4.23
2018-04-30T22:08:08.274Z,4.00
2018-04-30T22:10:35.309Z,6.23
2018-04-30T22:13:02.359Z,3.80
2018-04-30T22:15:29.392Z,3.23
2018-04-30T22:17:56.416Z,3.67
2018-04-30T22:20:23.493Z,5.17
2018-04-30T22:22:50.538Z,2.63
2018-04-30T22:25:17.598Z,5.27
2018-04-30T22:27:44.633Z,4.40
2018-04-30T22:30:11.626Z,3.67
2018-04-30T22:32:39.417Z,2.60
2018-04-30T22:35:07.165Z,4.03
2018-04-30T22:37:34.936Z,4.40
2018-04-30T22:40:02.014Z,5.00
2018-04-30T22:42:29.072Z,6.10
2018-04-30T22:44:56.099Z,5.30
2018-04-30T22:47:23.107Z,5.73
2018-04-30T22:49:50.843Z,3.07
2018-04-30T22:52:17.984Z,2.20
2018-04-30T22:54:44.988Z,4.63
2018-04-30T22:57:12.016Z,4.20
2018-04-30T22:59:39.004Z,4.47
2018-04-30T23:02:06.076Z,3.57
2018-04-30T23:04:33.097Z,5.23
2018-04-30T23:07:00.116Z,4.10
2018-04-30T23:09:27.120Z,3.53
2018-04-30T23:11:54.943Z,2.87
2018-04-30T23:14:22.096Z,3.37
2018-04-30T23:16:49.136Z,3.03
2018-04-30T23:19:16.181Z,4.50
2018-04-30T23:21:43.948Z,4.97
2018-04-30T23:24:10.959Z,4.57
2018-04-30T23:26:38.716Z,5.83
2018-04-30T23:29:06.492Z,5.70
2018-04-30T23:31:33.592Z,4.23
2018-04-30T23:34:00.584Z,2.20
2018-04-30T23:36:28.344Z,2.97
2018-04-30T23:38:56.100Z,2.73
2018-04-30T23:41:23.204Z,4.10
2018-04-30T23:43:50.204Z,2.90
2018-04-30T23:46:17.968Z,2.90
2018-04-30T23:48:44.956Z,3.07
2018-04-30T23:51:12.040Z,7.60
2018-04-30T23:53:39.056Z,2.87
2018-04-30T23:56:06.028Z,2.60
2018-04-30T23:58:33.056Z,2.00
